Weather at Wallabadah Airport

Public forecast

Using degrees Celsius for public forecast. Weather courtesy of forecast.io.

Closest aviation weather report (METAR) to Wallabadah Airport

Closest report is Tamworth Airport, 27.0 nm (50.0 km) N. Retrieved 2020/11/30 16:30 UTC (0 seconds ago):

YSTW 301630Z AUTO 14006KT 9999 // NCD 20/15 Q1013 RF000/0000

Closest aviation forecast (TAF) to Wallabadah Airport

Closest forecast is Tamworth Airport, 27.0 nm (50.0 km) N. Retrieved 2020/11/30 12:36 UTC (4 hours ago):

TAF TAF YSTW 301114Z 3012/0106 12010KT CAVOK FM302200 35010KT CAVOK